Time;durP1;ratioP1;P1;durP2;ratioP2;P2;SDS_P1;SDS_P2;PMS_P1;PMS_P2;Temp;Humidity;BMP_temperature;BMP_pressure;BME280_temperature;BME280_humidity;BME280_pressure;Samples;Min_cycle;Max_cycle;Signal;HPM_P1;HPM_P2
2022/04/30 00:00:48;;;;;;;39.93;22.20;;;;;;;7.70;80.91;100775.25;4164904;28;20738;-69
2022/04/30 00:03:15;;;;;;;43.10;23.50;;;;;;;7.43;81.05;100778.19;4179818;28;22648;-69
2022/04/30 00:05:42;;;;;;;41.90;23.07;;;;;;;7.28;81.61;100768.72;4175205;28;21774;-68
2022/04/30 00:08:08;;;;;;;45.27;22.67;;;;;;;7.18;82.60;100774.72;4184467;28;20687;-70
2022/04/30 00:10:38;;;;;;;46.23;23.97;;;;;;;7.36;82.03;100775.16;4183165;28;22190;-69
2022/04/30 00:13:06;;;;;;;43.07;22.27;;;;;;;7.36;81.77;100771.66;4180737;28;21251;-70
2022/04/30 00:15:34;;;;;;;47.87;25.83;;;;;;;7.11;82.86;100768.19;4175130;28;20773;-71
2022/04/30 00:18:01;;;;;;;42.60;23.10;;;;;;;7.04;84.08;100766.97;4183423;28;20945;-67
2022/04/30 00:20:28;;;;;;;42.27;22.97;;;;;;;7.15;82.62;100767.00;4170734;28;20272;-68
2022/04/30 00:22:56;;;;;;;44.23;24.17;;;;;;;7.01;83.70;100769.84;4171737;28;20238;-70
2022/04/30 00:25:23;;;;;;;41.63;22.50;;;;;;;7.06;83.06;100767.69;4174298;28;20253;-70
2022/04/30 00:27:50;;;;;;;38.13;21.57;;;;;;;7.09;82.89;100770.09;4166432;28;21442;-69
2022/04/30 00:30:17;;;;;;;38.40;21.47;;;;;;;7.05;83.37;100775.78;4177181;28;21069;-67
2022/04/30 00:32:44;;;;;;;41.57;23.10;;;;;;;7.01;83.75;100777.78;4178786;28;21247;-68
2022/04/30 00:35:10;;;;;;;43.53;23.43;;;;;;;7.03;82.97;100775.88;4178359;28;20421;-69
2022/04/30 00:37:37;;;;;;;45.73;24.07;;;;;;;6.98;83.81;100778.84;4180310;28;20298;-70
2022/04/30 00:40:04;;;;;;;40.47;22.67;;;;;;;7.01;83.87;100772.50;4174138;28;20347;-69
2022/04/30 00:42:30;;;;;;;37.97;22.20;;;;;;;6.95;83.71;100779.09;4173699;28;20241;-68
2022/04/30 00:44:57;;;;;;;41.83;22.30;;;;;;;6.91;83.42;100779.44;4172086;28;21338;-68
2022/04/30 00:47:26;;;;;;;39.70;23.27;;;;;;;6.74;84.41;100778.88;4168759;28;20264;-68
2022/04/30 00:49:53;;;;;;;39.57;21.77;;;;;;;6.81;83.54;100778.41;4181551;28;20257;-67
2022/04/30 00:52:21;;;;;;;40.53;21.07;;;;;;;6.82;83.46;100775.66;4171590;28;21726;-68
2022/04/30 00:54:53;;;;;;;41.30;21.30;;;;;;;6.79;82.98;100780.31;4174035;28;20335;-68
2022/04/30 00:57:23;;;;;;;38.67;21.97;;;;;;;6.66;83.42;100773.28;4177635;28;20300;-68
2022/04/30 01:00:01;;;;;;;37.03;20.43;;;;;;;6.57;83.81;100773.09;4179784;28;20322;-68
2022/04/30 01:02:28;;;;;;;39.93;20.70;;;;;;;6.60;83.26;100773.72;4175121;28;23817;-68
2022/04/30 01:04:57;;;;;;;42.00;21.87;;;;;;;6.63;82.50;100773.50;4173005;28;20235;-68
2022/04/30 01:07:25;;;;;;;42.63;22.40;;;;;;;6.51;83.06;100766.47;4171570;28;20315;-69
2022/04/30 01:09:53;;;;;;;42.70;22.60;;;;;;;6.26;82.78;100770.84;4175284;28;20444;-68
2022/04/30 01:12:22;;;;;;;38.50;20.93;;;;;;;6.26;82.49;100772.66;4164093;28;20697;-69
2022/04/30 01:14:50;;;;;;;41.17;22.43;;;;;;;6.20;82.67;100768.63;4170270;28;20232;-68
2022/04/30 01:17:17;;;;;;;46.67;22.20;;;;;;;6.18;82.71;100767.94;4174847;28;20230;-69
2022/04/30 01:19:44;;;;;;;48.33;23.27;;;;;;;6.02;81.78;100762.88;4176020;28;21802;-68
2022/04/30 01:22:30;;;;;;;41.47;22.43;;;;;;;6.15;81.92;100764.63;4161408;28;21207;-66
2022/04/30 01:24:58;;;;;;;50.37;22.47;;;;;;;6.19;80.85;100764.31;4189484;28;20235;-69
2022/04/30 01:27:26;;;;;;;48.90;23.07;;;;;;;6.12;81.01;100766.53;4172032;28;21023;-66
2022/04/30 01:29:58;;;;;;;39.03;22.53;;;;;;;6.02;80.91;100767.31;4168297;28;20253;-68
2022/04/30 01:38:02;;;;;;;41.63;20.17;;;;;;;6.37;77.89;100772.75;4180605;28;20230;-69
2022/04/30 01:40:31;;;;;;;48.67;21.90;;;;;;;6.21;78.79;100770.34;4177321;28;21633;-68
2022/04/30 01:43:01;;;;;;;42.47;22.57;;;;;;;6.28;78.19;100771.59;4168753;28;22899;-67
2022/04/30 01:45:28;;;;;;;41.47;22.93;;;;;;;6.10;79.65;100770.25;4184571;28;20266;-71
2022/04/30 01:47:56;;;;;;;44.70;22.33;;;;;;;6.16;78.75;100771.59;4169454;28;20244;-68
2022/04/30 01:50:23;;;;;;;45.90;23.10;;;;;;;6.09;78.76;100773.84;4172068;28;20239;-69
2022/04/30 01:52:51;;;;;;;43.53;23.23;;;;;;;6.03;79.74;100769.00;4194415;28;20238;-67
2022/04/30 01:55:18;;;;;;;44.13;23.57;;;;;;;5.97;79.85;100769.41;4176704;28;20247;-68
2022/04/30 01:57:44;;;;;;;44.83;23.90;;;;;;;5.78;80.89;100781.22;4167815;28;22983;-68
2022/04/30 02:00:14;;;;;;;55.57;24.03;;;;;;;5.60;82.75;100771.94;4194986;28;22140;-68
2022/04/30 02:02:44;;;;;;;46.23;24.23;;;;;;;5.65;82.37;100773.31;4181574;28;20263;-68
2022/04/30 02:05:13;;;;;;;50.63;23.50;;;;;;;5.83;80.74;100768.56;4180013;28;22523;-67
2022/04/30 02:07:49;;;;;;;52.83;23.67;;;;;;;5.90;80.15;100767.19;4182803;28;20247;-68
2022/04/30 02:10:18;;;;;;;46.57;22.53;;;;;;;5.87;80.27;100770.00;4179974;28;20227;-69
2022/04/30 02:12:45;;;;;;;64.33;24.80;;;;;;;5.57;81.92;100767.72;4178635;28;21289;-67
2022/04/30 02:15:15;;;;;;;47.57;24.03;;;;;;;5.61;81.98;100769.19;4165842;28;20335;-68
2022/04/30 02:17:41;;;;;;;48.13;22.50;;;;;;;5.81;81.66;100769.63;4181956;28;20237;-68
2022/04/30 02:22:56;;;;;;;49.97;23.90;;;;;;;5.61;82.36;100769.19;4188971;28;20253;-67
2022/04/30 02:25:24;;;;;;;48.13;24.07;;;;;;;5.63;81.79;100759.34;4174633;28;20241;-67
2022/04/30 02:28:04;;;;;;;53.50;26.90;;;;;;;5.60;82.55;100756.94;4181599;28;20246;-72
2022/04/30 02:30:38;;;;;;;53.00;26.10;;;;;;;5.65;82.91;100754.81;4167730;28;20230;-69
2022/04/30 02:33:09;;;;;;;60.53;28.47;;;;;;;5.76;82.92;100753.22;4185483;28;20297;-69
2022/04/30 02:35:43;;;;;;;56.00;27.50;;;;;;;5.71;83.27;100758.81;4175819;28;20238;-70
2022/04/30 02:38:10;;;;;;;47.33;24.60;;;;;;;5.69;82.84;100755.47;4179601;28;21767;-69
2022/04/30 02:40:39;;;;;;;52.17;25.57;;;;;;;5.80;83.17;100750.25;4170764;28;20238;-67
2022/04/30 02:43:08;;;;;;;56.13;26.23;;;;;;;5.88;82.52;100750.59;4163787;28;20229;-68
2022/04/30 02:45:36;;;;;;;53.67;25.50;;;;;;;5.81;83.26;100753.78;4205315;28;22805;-68
2022/04/30 02:48:06;;;;;;;49.73;25.43;;;;;;;5.62;84.30;100744.47;4179818;28;20238;-68
2022/04/30 02:50:33;;;;;;;54.30;28.23;;;;;;;5.65;84.72;100751.34;4167748;28;20230;-69
2022/04/30 02:53:00;;;;;;;57.97;27.40;;;;;;;5.75;84.97;100744.47;4174406;28;20251;-68
2022/04/30 02:55:26;;;;;;;61.27;29.37;;;;;;;5.80;85.07;100746.78;4171832;28;20313;-67
2022/04/30 03:00:39;;;;;;;51.60;26.90;;;;;;;5.68;84.91;100748.47;4200610;28;20581;-69
2022/04/30 03:03:07;;;;;;;58.23;25.33;;;;;;;5.69;84.54;100739.63;4192789;28;21247;-68
2022/04/30 03:05:43;;;;;;;46.63;24.97;;;;;;;5.70;84.21;100743.94;4192023;28;21685;-68
2022/04/30 03:08:21;;;;;;;53.80;25.73;;;;;;;5.55;84.45;100742.34;4178107;28;20247;-68
2022/04/30 03:10:49;;;;;;;48.23;25.40;;;;;;;5.45;85.07;100742.97;4173318;28;20237;-68
2022/04/30 03:13:20;;;;;;;55.47;26.23;;;;;;;5.29;85.31;100747.59;4171207;28;20236;-68
2022/04/30 03:15:49;;;;;;;54.33;27.47;;;;;;;5.29;85.35;100748.47;4178444;28;21361;-67
2022/04/30 03:23:31;;;;;;;59.13;29.00;;;;;;;5.22;86.99;100749.81;4190261;28;26077;-69
2022/04/30 03:25:58;;;;;;;62.07;31.40;;;;;;;5.20;87.08;100746.44;4189789;28;20245;-68
2022/04/30 03:28:24;;;;;;;58.00;28.37;;;;;;;5.16;87.84;100746.75;4214272;28;20317;-67
2022/04/30 03:30:51;;;;;;;58.73;28.10;;;;;;;5.14;88.74;100746.00;4214802;28;20302;-68
2022/04/30 03:33:18;;;;;;;69.77;31.73;;;;;;;5.23;88.15;100748.03;4179047;28;20322;-68
2022/04/30 03:35:45;;;;;;;67.23;31.23;;;;;;;5.24;87.79;100744.44;4194020;28;20243;-68
2022/04/30 03:38:11;;;;;;;58.13;28.40;;;;;;;5.25;87.74;100746.13;4194800;28;20238;-68
2022/04/30 03:40:39;;;;;;;60.40;29.60;;;;;;;5.20;87.90;100742.97;4182477;28;20239;-67
2022/04/30 03:43:06;;;;;;;60.13;31.50;;;;;;;5.22;88.04;100746.31;4199547;28;20603;-68
2022/04/30 03:45:33;;;;;;;60.60;31.13;;;;;;;5.10;89.58;100742.72;4177103;28;20238;-67
2022/04/30 03:48:00;;;;;;;63.20;32.53;;;;;;;5.20;89.70;100758.81;4217144;28;20241;-68
2022/04/30 03:50:26;;;;;;;66.53;30.43;;;;;;;5.20;90.14;100750.88;4178937;28;20246;-67
2022/04/30 03:52:53;;;;;;;65.23;31.40;;;;;;;5.23;90.15;100746.22;4206074;28;20229;-68
2022/04/30 03:55:19;;;;;;;57.53;31.00;;;;;;;5.16;91.09;100752.03;4176268;28;20704;-68
2022/04/30 03:57:46;;;;;;;68.17;32.43;;;;;;;5.16;90.02;100750.22;4181140;28;20472;-67
2022/04/30 04:00:13;;;;;;;64.27;31.80;;;;;;;4.94;91.67;100750.81;4192997;28;20245;-67
2022/04/30 04:02:41;;;;;;;58.90;31.57;;;;;;;4.88;92.05;100751.22;4181276;28;20230;-68
2022/04/30 04:05:10;;;;;;;66.27;32.13;;;;;;;4.95;92.83;100754.28;4188558;28;20233;-68
2022/04/30 04:07:37;;;;;;;61.70;30.67;;;;;;;4.99;91.93;100756.63;4193172;28;21239;-67
2022/04/30 04:10:04;;;;;;;70.17;32.53;;;;;;;4.92;92.71;100751.88;4180039;28;20279;-68
2022/04/30 04:12:30;;;;;;;66.43;32.07;;;;;;;5.00;92.79;100749.56;4176884;28;20234;-67
2022/04/30 04:17:42;;;;;;;65.20;30.77;;;;;;;5.26;90.16;100758.38;4187387;28;20229;-67
2022/04/30 04:20:11;;;;;;;58.00;29.90;;;;;;;5.26;90.31;100751.28;4174756;28;20230;-68
2022/04/30 04:22:37;;;;;;;62.43;31.33;;;;;;;5.38;89.68;100759.34;4187241;28;20318;-67
2022/04/30 04:27:59;;;;;;;60.70;29.13;;;;;;;5.72;87.55;100761.38;4190174;28;20708;-68
2022/04/30 04:30:27;;;;;;;58.40;28.27;;;;;;;5.71;88.67;100758.81;4169958;28;20299;-69
2022/04/30 04:32:56;;;;;;;52.87;27.80;;;;;;;5.88;87.99;100760.31;4179158;28;20265;-69
2022/04/30 04:35:23;;;;;;;59.27;29.30;;;;;;;5.90;87.60;100764.53;4188328;28;20233;-69
2022/04/30 04:37:50;;;;;;;58.17;29.37;;;;;;;6.03;87.99;100763.72;4180822;28;20276;-68
2022/04/30 04:40:17;;;;;;;56.33;28.13;;;;;;;6.06;87.58;100755.56;4202060;28;20224;-68
2022/04/30 04:42:44;;;;;;;60.93;29.67;;;;;;;6.13;87.07;100767.38;4181068;28;20329;-68
2022/04/30 04:45:11;;;;;;;55.10;27.43;;;;;;;6.32;86.85;100767.78;4174998;28;20237;-67
2022/04/30 04:47:41;;;;;;;62.90;28.03;;;;;;;6.39;86.76;100772.63;4182225;28;20237;-68
2022/04/30 04:50:09;;;;;;;54.70;26.30;;;;;;;6.58;85.73;100764.19;4188490;28;20304;-67
2022/04/30 04:52:36;;;;;;;58.00;25.87;;;;;;;6.75;83.67;100767.31;4191128;28;22957;-69
2022/04/30 04:55:03;;;;;;;51.20;25.60;;;;;;;6.95;82.54;100770.28;4180727;28;20415;-71
2022/04/30 04:57:29;;;;;;;44.47;24.33;;;;;;;7.06;82.27;100766.88;4166020;28;23109;-66
2022/04/30 04:59:56;;;;;;;52.67;24.93;;;;;;;7.09;81.88;100772.75;4173565;28;20423;-66
2022/04/30 05:02:23;;;;;;;45.10;23.90;;;;;;;7.28;80.66;100768.72;4182513;28;20244;-66
2022/04/30 05:04:50;;;;;;;44.87;23.03;;;;;;;7.40;79.56;100779.25;4190174;28;20241;-68
2022/04/30 05:07:17;;;;;;;52.23;22.80;;;;;;;7.58;78.23;100771.69;4187184;28;20257;-69
2022/04/30 05:09:43;;;;;;;47.47;23.90;;;;;;;7.70;78.43;100771.72;4182481;28;20234;-68
2022/04/30 05:12:11;;;;;;;44.47;23.73;;;;;;;7.80;78.24;100780.66;4186595;28;20322;-71
2022/04/30 05:14:37;;;;;;;46.33;24.70;;;;;;;7.68;78.09;100776.28;4191829;28;21714;-69
2022/04/30 05:17:05;;;;;;;44.37;22.97;;;;;;;7.69;78.13;100773.53;4181455;28;20241;-67
2022/04/30 05:19:32;;;;;;;46.73;23.67;;;;;;;7.76;78.14;100773.91;4172392;28;20244;-67
2022/04/30 05:21:59;;;;;;;43.87;23.37;;;;;;;7.84;78.00;100771.50;4183054;28;22321;-70
2022/04/30 05:24:26;;;;;;;40.47;21.80;;;;;;;8.02;76.70;100772.72;4182171;28;23571;-70
2022/04/30 05:26:52;;;;;;;46.53;22.47;;;;;;;8.13;76.04;100773.69;4171419;28;21565;-71
2022/04/30 05:29:19;;;;;;;40.27;21.07;;;;;;;8.38;74.80;100776.09;4182014;28;20245;-68
2022/04/30 05:31:46;;;;;;;40.03;20.17;;;;;;;8.55;73.69;100771.28;4176989;28;22452;-67
2022/04/30 05:34:12;;;;;;;40.20;19.50;;;;;;;8.65;72.31;100778.34;4176525;28;26377;-68
2022/04/30 05:36:39;;;;;;;36.20;20.03;;;;;;;8.72;71.00;100773.41;4192044;28;20231;-70
2022/04/30 05:39:06;;;;;;;36.43;18.63;;;;;;;8.74;71.58;100771.47;4179266;28;20237;-69
2022/04/30 05:41:32;;;;;;;35.33;18.40;;;;;;;8.79;71.10;100774.56;4177885;28;21693;-68
2022/04/30 05:43:59;;;;;;;35.20;18.87;;;;;;;8.87;70.62;100777.47;4192495;28;20248;-73
2022/04/30 05:46:26;;;;;;;35.03;18.57;;;;;;;9.13;69.75;100782.44;4182943;28;21160;-68
2022/04/30 05:48:53;;;;;;;32.07;17.73;;;;;;;9.30;68.64;100779.22;4180443;28;20315;-70
2022/04/30 05:51:20;;;;;;;31.53;17.00;;;;;;;9.42;68.28;100789.78;4179437;28;20469;-69
2022/04/30 05:53:46;;;;;;;27.77;17.07;;;;;;;9.73;67.06;100790.69;4183660;28;21078;-67
2022/04/30 05:56:13;;;;;;;35.30;17.33;;;;;;;9.96;67.14;100788.72;4193247;28;20234;-68
2022/04/30 05:58:40;;;;;;;33.17;16.47;;;;;;;10.34;66.04;100803.19;4173736;28;21531;-67
2022/04/30 06:01:06;;;;;;;34.40;16.23;;;;;;;10.92;61.34;100800.66;4185380;28;20522;-68
2022/04/30 06:03:33;;;;;;;26.70;14.67;;;;;;;12.61;56.45;100805.38;4183286;28;20245;-74
2022/04/30 06:06:01;;;;;;;26.63;15.03;;;;;;;14.17;51.41;100815.63;4198377;28;20337;-72
2022/04/30 06:08:27;;;;;;;27.07;13.67;;;;;;;15.58;46.60;100822.03;4182914;28;20244;-72
2022/04/30 06:10:54;;;;;;;30.83;13.87;;;;;;;17.16;41.41;100843.72;4186229;28;20373;-69
2022/04/30 06:13:21;;;;;;;27.03;14.40;;;;;;;17.73;39.08;100840.59;4177051;28;20242;-69
2022/04/30 06:15:48;;;;;;;22.97;13.40;;;;;;;17.90;37.45;100845.84;4181937;28;20237;-70
2022/04/30 06:18:16;;;;;;;26.70;14.47;;;;;;;18.96;35.38;100850.06;4195717;28;20377;-70
2022/04/30 06:20:43;;;;;;;22.17;12.37;;;;;;;19.80;34.17;100848.59;4216559;28;22304;-70
2022/04/30 06:23:10;;;;;;;26.00;13.93;;;;;;;21.16;31.14;100853.50;4197360;28;20312;-68
2022/04/30 06:25:36;;;;;;;20.77;12.53;;;;;;;22.74;29.39;100870.75;4198930;28;20229;-69
2022/04/30 06:28:03;;;;;;;24.33;13.40;;;;;;;23.13;27.62;100868.94;4228252;28;20697;-72
2022/04/30 06:30:30;;;;;;;23.03;12.87;;;;;;;23.96;26.36;100864.41;4187180;28;25205;-70
2022/04/30 06:32:57;;;;;;;28.73;15.47;;;;;;;24.81;24.53;100867.28;4195896;28;20237;-69
2022/04/30 06:35:25;;;;;;;31.33;17.07;;;;;;;24.05;25.00;100862.25;4212684;28;20245;-71
2022/04/30 06:37:58;;;;;;;31.63;16.17;;;;;;;25.49;24.67;100868.84;4198509;28;20289;-70
2022/04/30 06:40:25;;;;;;;44.73;22.53;;;;;;;25.82;22.86;100883.03;4180769;28;20233;-70
2022/04/30 06:42:52;;;;;;;49.97;23.17;;;;;;;26.88;21.78;100886.56;4185253;28;20683;-67
2022/04/30 06:45:18;;;;;;;41.47;21.43;;;;;;;27.56;20.64;100892.25;4200767;28;20235;-70
2022/04/30 06:47:45;;;;;;;41.40;21.03;;;;;;;27.15;19.88;100891.44;4201488;28;21474;-72
2022/04/30 06:50:12;;;;;;;37.83;18.67;;;;;;;25.17;21.80;100879.19;4199267;28;22157;-71
2022/04/30 06:57:07;;;;;;;38.28;16.90;;;;;;;25.72;21.73;100871.88;4188983;28;20583;-70
2022/04/30 06:58:11;;;;;;;33.30;15.93;;;;;;;26.10;20.43;100875.00;4235316;28;20237;-72
2022/04/30 07:03:27;;;;;;;28.30;11.90;;;;;;;26.00;20.17;100879.41;4211298;28;22310;-72
2022/04/30 07:06:04;;;;;;;20.10;10.37;;;;;;;27.03;19.21;100882.47;4187388;28;21695;-69
2022/04/30 07:08:32;;;;;;;23.27;10.57;;;;;;;26.51;19.34;100869.66;4163233;28;21461;-73
2022/04/30 07:11:00;;;;;;;21.43;9.50;;;;;;;26.71;18.42;100875.59;4185780;28;20274;-68
2022/04/30 07:13:26;;;;;;;16.37;9.20;;;;;;;26.25;19.18;100877.28;4204328;28;20305;-68
2022/04/30 07:15:53;;;;;;;18.60;8.93;;;;;;;28.09;17.68;100885.44;4215975;28;20419;-69
2022/04/30 07:18:20;;;;;;;17.35;9.18;;;;;;;29.23;15.80;100885.88;4203504;28;20233;-68
2022/04/30 07:20:47;;;;;;;21.63;8.48;;;;;;;27.98;16.36;100875.47;4171475;28;25792;-69
2022/04/30 07:23:14;;;;;;;14.00;7.05;;;;;;;28.16;15.67;100875.16;4196247;28;20246;-70
2022/04/30 07:25:40;;;;;;;23.87;10.23;;;;;;;27.90;16.36;100878.59;4177837;28;25995;-69
2022/04/30 07:28:07;;;;;;;21.33;10.55;;;;;;;28.03;16.81;100871.97;4176005;28;20314;-69
2022/04/30 07:30:34;;;;;;;21.73;8.88;;;;;;;27.58;16.16;100873.66;4176104;28;25141;-69
2022/04/30 07:33:01;;;;;;;18.65;9.35;;;;;;;27.78;15.76;100882.22;4198229;28;20326;-71
2022/04/30 07:35:27;;;;;;;18.53;9.57;;;;;;;26.60;17.47;100860.06;4206521;28;22024;-73
2022/04/30 07:37:54;;;;;;;17.97;7.17;;;;;;;27.41;16.32;100878.28;4215355;28;20300;-71
2022/04/30 07:40:28;;;;;;;12.70;6.10;;;;;;;26.56;16.57;100863.50;4216949;28;21817;-68
2022/04/30 07:42:59;;;;;;;15.73;7.70;;;;;;;26.17;17.00;100863.16;4185155;28;20284;-66
2022/04/30 07:45:26;;;;;;;16.27;8.30;;;;;;;25.06;18.20;100850.81;4182077;28;20291;-67
2022/04/30 07:47:54;;;;;;;14.13;6.53;;;;;;;24.70;18.24;100846.28;4180392;28;20395;-69
2022/04/30 07:50:26;;;;;;;9.30;4.47;;;;;;;24.18;17.32;100843.06;4180142;28;20253;-70
2022/04/30 07:52:53;;;;;;;13.43;5.67;;;;;;;23.36;19.11;100834.97;4214079;28;20274;-74
2022/04/30 07:55:19;;;;;;;15.30;5.97;;;;;;;23.16;19.28;100835.94;4226529;28;22525;-67
2022/04/30 07:57:46;;;;;;;8.40;3.50;;;;;;;21.80;18.92;100828.59;4230441;28;20278;-68
2022/04/30 08:00:13;;;;;;;9.80;3.67;;;;;;;20.24;21.33;100820.44;4199398;28;21807;-68
2022/04/30 08:02:39;;;;;;;7.53;3.70;;;;;;;20.23;21.30;100811.50;4196732;28;20230;-68
2022/04/30 08:05:07;;;;;;;12.00;4.27;;;;;;;20.09;21.89;100815.16;4197225;28;20237;-68
2022/04/30 08:07:33;;;;;;;10.47;3.80;;;;;;;20.03;21.74;100810.53;4199720;28;22182;-66
2022/04/30 08:10:00;;;;;;;7.57;3.70;;;;;;;20.41;21.60;100807.41;4184074;28;20242;-69
2022/04/30 08:12:28;;;;;;;9.97;4.33;;;;;;;20.66;21.17;100805.91;4173774;28;20237;-69
2022/04/30 08:14:56;;;;;;;10.80;4.90;;;;;;;20.27;21.70;100808.38;4188950;28;26029;-72
2022/04/30 08:17:23;;;;;;;10.53;4.57;;;;;;;19.99;22.30;100801.16;4180522;28;20225;-70
2022/04/30 08:19:51;;;;;;;5.10;2.03;;;;;;;19.90;20.53;100811.28;4176082;28;20233;-66
2022/04/30 08:22:17;;;;;;;5.50;2.00;;;;;;;19.06;21.99;100801.19;4184545;28;20925;-67
2022/04/30 08:24:45;;;;;;;4.10;2.10;;;;;;;19.00;22.07;100810.03;4172728;28;20297;-68
2022/04/30 08:27:13;;;;;;;11.57;2.37;;;;;;;19.25;21.65;100802.41;4196771;28;20243;-68
2022/04/30 08:29:40;;;;;;;7.73;2.37;;;;;;;19.44;21.60;100806.31;4183968;28;20246;-68
2022/04/30 08:32:08;;;;;;;7.57;2.27;;;;;;;19.68;22.29;100813.19;4182233;28;20230;-71
2022/04/30 08:34:34;;;;;;;5.57;2.10;;;;;;;19.65;22.23;100802.75;4202526;28;20651;-71
2022/04/30 08:37:01;;;;;;;7.37;3.13;;;;;;;19.67;21.51;100811.50;4187297;28;20967;-71
2022/04/30 08:39:31;;;;;;;6.60;2.37;;;;;;;19.86;21.40;100799.22;4196891;28;20224;-68
2022/04/30 08:41:58;;;;;;;4.53;2.17;;;;;;;19.89;21.02;100812.31;4202515;28;20281;-70
2022/04/30 08:44:25;;;;;;;9.80;2.50;;;;;;;19.73;21.14;100799.94;4191279;28;20306;-70
2022/04/30 08:46:52;;;;;;;7.03;2.17;;;;;;;19.38;22.08;100799.81;4185048;28;20257;-67
2022/04/30 08:49:19;;;;;;;5.23;2.20;;;;;;;18.87;21.71;100799.94;4185543;28;20320;-69
2022/04/30 08:51:45;;;;;;;5.07;2.10;;;;;;;18.58;22.25;100789.19;4179832;28;20300;-69
2022/04/30 08:54:12;;;;;;;6.10;2.50;;;;;;;18.03;23.07;100781.44;4217315;28;22572;-68
2022/04/30 08:56:53;;;;;;;4.57;2.10;;;;;;;17.50;23.76;100772.50;4185756;28;25038;-68
2022/04/30 08:59:20;;;;;;;4.80;2.30;;;;;;;17.64;24.42;100778.94;4194522;28;21686;-68
2022/04/30 09:01:48;;;;;;;6.10;2.33;;;;;;;17.42;23.35;100769.88;4213740;28;20294;-69
2022/04/30 09:04:16;;;;;;;7.30;1.93;;;;;;;17.68;23.47;100778.41;4223020;28;20735;-70
2022/04/30 09:06:49;;;;;;;6.67;1.80;;;;;;;17.79;23.46;100779.78;4192336;28;20650;-70
2022/04/30 09:09:29;;;;;;;3.50;1.73;;;;;;;17.94;22.48;100782.53;4182351;28;20784;-69
2022/04/30 09:12:07;;;;;;;4.43;1.83;;;;;;;17.79;23.21;100774.41;4185538;28;20401;-69
2022/04/30 09:14:34;;;;;;;6.63;1.97;;;;;;;18.21;23.25;100772.13;4166776;28;20285;-72
2022/04/30 09:17:05;;;;;;;4.33;2.20;;;;;;;17.98;23.78;100773.09;4183188;28;21353;-68
2022/04/30 09:19:49;;;;;;;7.37;2.17;;;;;;;17.71;23.40;100764.56;4184442;28;20720;-70
2022/04/30 09:22:16;;;;;;;9.70;2.40;;;;;;;17.72;24.18;100763.56;4200402;28;22523;-69
2022/04/30 09:24:50;;;;;;;4.80;2.17;;;;;;;17.77;24.76;100767.53;4178538;28;20233;-71
2022/04/30 09:27:44;;;;;;;8.63;2.10;;;;;;;17.94;24.71;100766.38;4182379;28;20440;-71
2022/04/30 09:30:29;;;;;;;8.90;2.60;;;;;;;18.39;23.15;100769.88;4178924;28;20236;-70
2022/04/30 09:33:07;;;;;;;9.90;2.37;;;;;;;18.44;23.93;100763.94;4168130;28;20242;-69
2022/04/30 09:38:24;;;;;;;6.27;2.20;;;;;;;17.59;24.60;100757.97;4180924;28;23573;-69
2022/04/30 09:40:52;;;;;;;6.57;2.17;;;;;;;17.53;24.82;100758.69;4205237;28;21806;-67
2022/04/30 09:43:21;;;;;;;5.00;1.30;;;;;;;17.76;24.14;100758.63;4180611;28;20903;-68
2022/04/30 09:45:48;;;;;;;5.80;1.43;;;;;;;17.81;22.05;100760.81;4181930;28;21908;-68
2022/04/30 09:53:58;;;;;;;5.73;1.40;;;;;;;17.76;21.26;100755.94;4214687;28;20248;-69
2022/04/30 09:56:39;;;;;;;6.00;1.20;;;;;;;17.70;22.15;100754.84;4205718;28;20234;-69
2022/04/30 09:59:08;;;;;;;3.27;1.20;;;;;;;18.12;24.32;100752.53;4181711;28;20242;-69
2022/04/30 10:01:37;;;;;;;6.57;1.57;;;;;;;18.14;23.24;100755.88;4177849;28;20900;-68
2022/04/30 10:04:09;;;;;;;5.97;1.50;;;;;;;18.29;23.04;100754.03;4184274;28;20297;-69
2022/04/30 10:06:46;;;;;;;2.97;1.60;;;;;;;18.58;23.71;100756.84;4188092;28;20249;-67
2022/04/30 10:09:18;;;;;;;7.30;1.73;;;;;;;18.10;23.63;100749.22;4188614;28;21666;-70
2022/04/30 10:11:54;;;;;;;3.60;1.97;;;;;;;17.95;23.79;100748.38;4165438;28;20321;-68
2022/04/30 10:14:50;;;;;;;8.57;1.80;;;;;;;17.42;24.45;100735.75;4182418;28;20234;-67
2022/04/30 10:17:17;;;;;;;3.33;1.50;;;;;;;17.69;24.61;100731.59;4206334;28;20233;-71
2022/04/30 10:19:59;;;;;;;6.17;1.60;;;;;;;18.14;22.27;100734.34;4201628;28;20259;-69
2022/04/30 10:22:27;;;;;;;6.40;1.73;;;;;;;18.11;23.07;100740.09;4206460;28;20652;-70
2022/04/30 10:24:59;;;;;;;3.27;1.40;;;;;;;18.22;22.02;100736.09;4203737;28;20888;-62
2022/04/30 10:27:43;;;;;;;5.10;1.47;;;;;;;18.12;23.13;100731.84;4225755;28;20336;-58
2022/04/30 10:30:24;;;;;;;5.50;1.50;;;;;;;18.27;22.98;100729.13;4215253;28;25504;-70
2022/04/30 10:32:59;;;;;;;4.33;1.60;;;;;;;18.45;22.79;100731.41;4191975;28;21790;-69
2022/04/30 10:35:36;;;;;;;3.83;1.50;;;;;;;18.31;22.27;100738.50;4196122;28;20698;-74
2022/04/30 10:38:12;;;;;;;3.93;1.30;;;;;;;17.84;22.50;100730.81;4218045;28;20313;-73
2022/04/30 10:40:41;;;;;;;4.07;1.60;;;;;;;18.14;22.96;100727.13;4206205;28;20240;-61
2022/04/30 10:43:14;;;;;;;5.33;1.50;;;;;;;18.38;23.36;100719.72;4228619;28;20300;-74
2022/04/30 10:45:43;;;;;;;3.83;1.23;;;;;;;18.64;23.22;100726.44;4213861;28;20232;-73
2022/04/30 10:48:12;;;;;;;6.23;1.70;;;;;;;18.92;23.08;100719.31;4214878;28;21869;-75
2022/04/30 10:50:40;;;;;;;3.47;1.50;;;;;;;18.66;23.47;100721.69;4191564;28;21195;-73
2022/04/30 10:53:09;;;;;;;7.80;1.60;;;;;;;18.35;24.34;100715.56;4216414;28;21186;-73
2022/04/30 10:55:37;;;;;;;4.10;1.23;;;;;;;17.86;23.64;100707.22;4220239;28;20232;-76
2022/04/30 10:58:04;;;;;;;3.77;1.20;;;;;;;18.24;23.74;100717.88;4221148;28;20309;-70
2022/04/30 11:00:31;;;;;;;5.50;1.63;;;;;;;18.21;23.15;100712.88;4249308;28;20237;-74
2022/04/30 11:03:11;;;;;;;7.37;2.53;;;;;;;18.05;22.97;100704.00;4240575;28;21263;-72
2022/04/30 11:05:38;;;;;;;2.67;1.67;;;;;;;18.43;22.27;100711.91;4244281;28;20734;-71
2022/04/30 11:08:05;;;;;;;8.40;1.60;;;;;;;18.28;22.94;100703.00;4207073;28;20424;-72
2022/04/30 11:10:32;;;;;;;4.77;2.13;;;;;;;17.88;23.10;100703.34;4219101;28;21672;-72
2022/04/30 11:13:06;;;;;;;2.80;1.50;;;;;;;17.51;24.06;100697.00;4218319;28;21413;-73
2022/04/30 11:15:33;;;;;;;5.90;1.63;;;;;;;17.34;24.98;100705.41;4261450;28;20312;-74
2022/04/30 11:18:01;;;;;;;3.43;1.20;;;;;;;17.45;23.50;100696.88;4231614;28;20337;-74
2022/04/30 11:20:28;;;;;;;4.37;1.40;;;;;;;17.46;22.25;100694.00;4212376;28;21683;-73
2022/04/30 11:22:57;;;;;;;4.83;1.47;;;;;;;17.33;22.25;100698.38;4228930;28;20228;-71
2022/04/30 11:25:38;;;;;;;3.60;1.47;;;;;;;17.47;23.47;100693.00;4212655;28;22644;-70
2022/04/30 11:28:06;;;;;;;5.13;1.37;;;;;;;17.60;22.78;100695.03;4207439;28;20315;-71
2022/04/30 11:30:37;;;;;;;3.17;1.00;;;;;;;17.49;23.77;100684.75;4202944;28;20553;-73
2022/04/30 11:33:05;;;;;;;6.13;1.37;;;;;;;17.47;23.30;100684.91;4230407;28;20233;-72
2022/04/30 11:35:33;;;;;;;6.13;1.30;;;;;;;17.60;24.15;100675.38;4216921;28;20276;-74
2022/04/30 11:38:00;;;;;;;2.20;1.00;;;;;;;17.98;23.08;100672.59;4212989;28;20242;-75
2022/04/30 11:40:27;;;;;;;4.57;1.37;;;;;;;18.19;22.39;100674.50;4201826;28;20385;-73
2022/04/30 11:42:57;;;;;;;5.83;1.90;;;;;;;17.93;22.40;100665.94;4201086;28;21191;-72
2022/04/30 11:45:31;;;;;;;2.27;1.20;;;;;;;17.65;22.70;100670.25;4233759;28;25749;-68
2022/04/30 11:48:03;;;;;;;7.47;1.50;;;;;;;17.48;22.71;100664.22;4198539;28;20232;-73
2022/04/30 11:50:30;;;;;;;7.33;1.37;;;;;;;17.72;23.51;100661.28;4202205;28;20242;-72
2022/04/30 11:52:57;;;;;;;2.53;1.30;;;;;;;17.95;23.05;100656.81;4220156;28;21008;-77
2022/04/30 11:55:24;;;;;;;6.83;1.20;;;;;;;18.07;22.92;100653.44;4235187;28;20227;-73
2022/04/30 11:57:50;;;;;;;4.17;1.20;;;;;;;18.20;23.96;100641.19;4221754;28;20237;-75
2022/04/30 12:00:18;;;;;;;1.53;1.00;;;;;;;18.35;21.44;100653.59;4192460;28;20378;-71
2022/04/30 12:02:46;;;;;;;2.60;1.13;;;;;;;18.66;21.31;100651.59;4178699;28;22275;-74